sensor_id;sensor_type;location;lat;lon;timestamp;P1;durP1;ratioP1;P2;durP2;ratioP2
79616;SDS011;69097;52.132;5.422;2023-07-24T00:00:07;6.03;;;3.05;;
79616;SDS011;69097;52.132;5.422;2023-07-24T00:03:00;7.03;;;3.10;;
79616;SDS011;69097;52.132;5.422;2023-07-24T00:05:31;8.70;;;3.20;;
79616;SDS011;69097;52.132;5.422;2023-07-24T00:08:05;6.60;;;3.65;;
79616;SDS011;69097;52.132;5.422;2023-07-24T00:10:37;6.45;;;3.30;;
79616;SDS011;69097;52.132;5.422;2023-07-24T00:13:04;5.25;;;3.03;;
79616;SDS011;69097;52.132;5.422;2023-07-24T00:15:31;6.93;;;2.72;;
79616;SDS011;69097;52.132;5.422;2023-07-24T00:17:58;5.43;;;3.00;;
79616;SDS011;69097;52.132;5.422;2023-07-24T00:20:28;7.15;;;3.42;;
79616;SDS011;69097;52.132;5.422;2023-07-24T00:23:00;6.32;;;3.95;;
79616;SDS011;69097;52.132;5.422;2023-07-24T00:25:29;5.70;;;3.08;;
79616;SDS011;69097;52.132;5.422;2023-07-24T00:28:00;6.97;;;2.83;;
79616;SDS011;69097;52.132;5.422;2023-07-24T00:30:32;6.40;;;2.97;;
79616;SDS011;69097;52.132;5.422;2023-07-24T00:33:05;6.88;;;3.70;;
79616;SDS011;69097;52.132;5.422;2023-07-24T00:35:36;5.40;;;2.20;;
79616;SDS011;69097;52.132;5.422;2023-07-24T00:38:06;6.05;;;3.42;;
79616;SDS011;69097;52.132;5.422;2023-07-24T00:40:33;6.25;;;3.45;;
79616;SDS011;69097;52.132;5.422;2023-07-24T00:42:59;9.00;;;3.50;;
79616;SDS011;69097;52.132;5.422;2023-07-24T00:45:26;6.15;;;3.40;;
79616;SDS011;69097;52.132;5.422;2023-07-24T00:47:53;6.55;;;2.65;;
79616;SDS011;69097;52.132;5.422;2023-07-24T00:50:21;7.60;;;4.43;;
79616;SDS011;69097;52.132;5.422;2023-07-24T00:52:52;6.82;;;3.25;;
79616;SDS011;69097;52.132;5.422;2023-07-24T00:55:20;5.85;;;2.70;;
79616;SDS011;69097;52.132;5.422;2023-07-24T00:57:49;6.78;;;3.80;;
79616;SDS011;69097;52.132;5.422;2023-07-24T01:00:20;8.27;;;3.90;;
79616;SDS011;69097;52.132;5.422;2023-07-24T01:02:49;6.80;;;4.05;;
79616;SDS011;69097;52.132;5.422;2023-07-24T01:05:17;7.75;;;3.72;;
79616;SDS011;69097;52.132;5.422;2023-07-24T01:07:50;6.78;;;2.75;;
79616;SDS011;69097;52.132;5.422;2023-07-24T01:10:18;8.15;;;4.45;;
79616;SDS011;69097;52.132;5.422;2023-07-24T01:12:50;5.85;;;2.72;;
79616;SDS011;69097;52.132;5.422;2023-07-24T01:15:25;7.32;;;4.22;;
79616;SDS011;69097;52.132;5.422;2023-07-24T01:18:02;6.80;;;2.42;;
79616;SDS011;69097;52.132;5.422;2023-07-24T01:20:37;6.65;;;3.67;;
79616;SDS011;69097;52.132;5.422;2023-07-24T01:26:45;5.90;;;3.30;;
79616;SDS011;69097;52.132;5.422;2023-07-24T01:29:11;7.78;;;3.40;;
79616;SDS011;69097;52.132;5.422;2023-07-24T01:32:05;6.32;;;4.05;;
79616;SDS011;69097;52.132;5.422;2023-07-24T01:34:39;6.05;;;3.53;;
79616;SDS011;69097;52.132;5.422;2023-07-24T01:37:13;8.98;;;3.72;;
79616;SDS011;69097;52.132;5.422;2023-07-24T01:39:41;7.85;;;3.63;;
79616;SDS011;69097;52.132;5.422;2023-07-24T01:42:13;7.18;;;3.90;;
79616;SDS011;69097;52.132;5.422;2023-07-24T01:44:50;6.22;;;3.55;;
79616;SDS011;69097;52.132;5.422;2023-07-24T01:47:30;6.85;;;3.85;;
79616;SDS011;69097;52.132;5.422;2023-07-24T01:50:00;6.32;;;3.55;;
79616;SDS011;69097;52.132;5.422;2023-07-24T01:52:33;5.65;;;2.22;;
79616;SDS011;69097;52.132;5.422;2023-07-24T01:55:09;6.57;;;3.60;;
79616;SDS011;69097;52.132;5.422;2023-07-24T01:57:36;6.95;;;3.92;;
79616;SDS011;69097;52.132;5.422;2023-07-24T02:00:03;6.78;;;3.28;;
79616;SDS011;69097;52.132;5.422;2023-07-24T02:02:32;6.68;;;3.47;;
79616;SDS011;69097;52.132;5.422;2023-07-24T02:04:59;8.45;;;4.10;;
79616;SDS011;69097;52.132;5.422;2023-07-24T02:07:26;7.22;;;4.25;;
79616;SDS011;69097;52.132;5.422;2023-07-24T02:09:52;6.25;;;3.67;;
79616;SDS011;69097;52.132;5.422;2023-07-24T02:12:27;6.72;;;3.53;;
79616;SDS011;69097;52.132;5.422;2023-07-24T02:14:54;7.03;;;3.97;;
79616;SDS011;69097;52.132;5.422;2023-07-24T02:17:26;6.88;;;3.67;;
79616;SDS011;69097;52.132;5.422;2023-07-24T02:19:54;6.93;;;3.80;;
79616;SDS011;69097;52.132;5.422;2023-07-24T02:22:22;6.95;;;5.03;;
79616;SDS011;69097;52.132;5.422;2023-07-24T02:24:49;6.63;;;3.97;;
79616;SDS011;69097;52.132;5.422;2023-07-24T02:27:26;8.23;;;4.47;;
79616;SDS011;69097;52.132;5.422;2023-07-24T02:29:54;6.78;;;4.35;;
79616;SDS011;69097;52.132;5.422;2023-07-24T02:32:22;8.55;;;4.70;;
79616;SDS011;69097;52.132;5.422;2023-07-24T02:34:50;6.75;;;4.40;;
79616;SDS011;69097;52.132;5.422;2023-07-24T02:37:28;7.45;;;4.25;;
79616;SDS011;69097;52.132;5.422;2023-07-24T02:39:58;7.82;;;3.35;;
79616;SDS011;69097;52.132;5.422;2023-07-24T02:42:31;6.95;;;3.20;;
79616;SDS011;69097;52.132;5.422;2023-07-24T02:44:59;6.85;;;4.28;;
79616;SDS011;69097;52.132;5.422;2023-07-24T02:47:29;6.00;;;3.60;;
79616;SDS011;69097;52.132;5.422;2023-07-24T02:49:56;7.32;;;4.30;;
79616;SDS011;69097;52.132;5.422;2023-07-24T02:52:22;7.97;;;3.70;;
79616;SDS011;69097;52.132;5.422;2023-07-24T02:54:49;6.20;;;3.63;;
79616;SDS011;69097;52.132;5.422;2023-07-24T02:57:15;6.63;;;4.22;;
79616;SDS011;69097;52.132;5.422;2023-07-24T02:59:45;5.80;;;3.22;;
79616;SDS011;69097;52.132;5.422;2023-07-24T03:02:13;6.72;;;4.00;;
79616;SDS011;69097;52.132;5.422;2023-07-24T03:04:41;6.90;;;4.10;;
79616;SDS011;69097;52.132;5.422;2023-07-24T03:07:10;8.43;;;3.72;;
79616;SDS011;69097;52.132;5.422;2023-07-24T03:09:36;8.07;;;3.92;;
79616;SDS011;69097;52.132;5.422;2023-07-24T03:12:03;6.90;;;3.83;;
79616;SDS011;69097;52.132;5.422;2023-07-24T03:14:32;8.48;;;4.63;;
79616;SDS011;69097;52.132;5.422;2023-07-24T03:16:59;7.03;;;3.30;;
79616;SDS011;69097;52.132;5.422;2023-07-24T03:19:28;6.85;;;4.18;;
79616;SDS011;69097;52.132;5.422;2023-07-24T03:21:55;8.30;;;3.95;;
79616;SDS011;69097;52.132;5.422;2023-07-24T03:24:22;7.03;;;3.30;;
79616;SDS011;69097;52.132;5.422;2023-07-24T03:26:51;8.20;;;4.43;;
79616;SDS011;69097;52.132;5.422;2023-07-24T03:29:26;5.97;;;3.40;;
79616;SDS011;69097;52.132;5.422;2023-07-24T03:31:56;5.97;;;2.95;;
79616;SDS011;69097;52.132;5.422;2023-07-24T03:34:43;7.47;;;4.07;;
79616;SDS011;69097;52.132;5.422;2023-07-24T03:37:13;6.88;;;3.30;;
79616;SDS011;69097;52.132;5.422;2023-07-24T03:39:42;7.40;;;3.28;;
79616;SDS011;69097;52.132;5.422;2023-07-24T03:42:09;9.15;;;4.30;;
79616;SDS011;69097;52.132;5.422;2023-07-24T03:44:42;6.82;;;2.75;;
79616;SDS011;69097;52.132;5.422;2023-07-24T03:47:10;7.40;;;3.65;;
79616;SDS011;69097;52.132;5.422;2023-07-24T03:49:43;7.65;;;3.40;;
79616;SDS011;69097;52.132;5.422;2023-07-24T03:52:12;6.07;;;2.72;;
79616;SDS011;69097;52.132;5.422;2023-07-24T03:54:41;7.25;;;3.75;;
79616;SDS011;69097;52.132;5.422;2023-07-24T03:59:34;8.75;;;4.30;;
79616;SDS011;69097;52.132;5.422;2023-07-24T04:02:04;6.72;;;3.35;;
79616;SDS011;69097;52.132;5.422;2023-07-24T04:04:36;8.02;;;4.32;;
79616;SDS011;69097;52.132;5.422;2023-07-24T04:07:08;9.38;;;4.10;;
79616;SDS011;69097;52.132;5.422;2023-07-24T04:09:41;7.88;;;4.03;;
79616;SDS011;69097;52.132;5.422;2023-07-24T04:12:08;8.65;;;4.72;;
79616;SDS011;69097;52.132;5.422;2023-07-24T04:17:01;7.13;;;3.70;;
79616;SDS011;69097;52.132;5.422;2023-07-24T04:19:29;8.23;;;4.15;;
79616;SDS011;69097;52.132;5.422;2023-07-24T04:22:00;7.63;;;4.10;;
79616;SDS011;69097;52.132;5.422;2023-07-24T04:24:31;7.65;;;4.75;;
79616;SDS011;69097;52.132;5.422;2023-07-24T04:26:58;9.07;;;3.45;;
79616;SDS011;69097;52.132;5.422;2023-07-24T04:29:24;8.20;;;4.65;;
79616;SDS011;69097;52.132;5.422;2023-07-24T04:31:57;7.80;;;4.50;;
79616;SDS011;69097;52.132;5.422;2023-07-24T04:34:25;8.55;;;4.88;;
79616;SDS011;69097;52.132;5.422;2023-07-24T04:36:51;8.68;;;4.72;;
79616;SDS011;69097;52.132;5.422;2023-07-24T04:39:18;8.00;;;5.00;;
79616;SDS011;69097;52.132;5.422;2023-07-24T04:41:44;8.10;;;3.78;;
79616;SDS011;69097;52.132;5.422;2023-07-24T04:44:11;9.68;;;4.32;;
79616;SDS011;69097;52.132;5.422;2023-07-24T04:46:41;6.55;;;3.30;;
79616;SDS011;69097;52.132;5.422;2023-07-24T04:49:11;11.85;;;5.07;;
79616;SDS011;69097;52.132;5.422;2023-07-24T04:51:38;9.88;;;4.85;;
79616;SDS011;69097;52.132;5.422;2023-07-24T04:54:06;9.43;;;5.38;;
79616;SDS011;69097;52.132;5.422;2023-07-24T04:56:37;9.13;;;4.22;;
79616;SDS011;69097;52.132;5.422;2023-07-24T04:59:06;9.02;;;4.55;;
79616;SDS011;69097;52.132;5.422;2023-07-24T05:01:32;8.50;;;4.50;;
79616;SDS011;69097;52.132;5.422;2023-07-24T05:03:59;8.20;;;4.30;;
79616;SDS011;69097;52.132;5.422;2023-07-24T05:06:26;8.60;;;4.53;;
79616;SDS011;69097;52.132;5.422;2023-07-24T05:08:55;8.27;;;4.68;;
79616;SDS011;69097;52.132;5.422;2023-07-24T05:11:24;9.80;;;4.78;;
79616;SDS011;69097;52.132;5.422;2023-07-24T05:13:53;9.57;;;5.10;;
79616;SDS011;69097;52.132;5.422;2023-07-24T05:16:20;9.90;;;4.90;;
79616;SDS011;69097;52.132;5.422;2023-07-24T05:18:47;9.45;;;4.63;;
79616;SDS011;69097;52.132;5.422;2023-07-24T05:21:18;11.68;;;5.00;;
79616;SDS011;69097;52.132;5.422;2023-07-24T05:23:45;13.23;;;5.72;;
79616;SDS011;69097;52.132;5.422;2023-07-24T05:26:15;10.90;;;5.05;;
79616;SDS011;69097;52.132;5.422;2023-07-24T05:28:43;10.13;;;4.80;;
79616;SDS011;69097;52.132;5.422;2023-07-24T05:31:09;9.90;;;4.70;;
79616;SDS011;69097;52.132;5.422;2023-07-24T05:33:36;10.77;;;4.93;;
79616;SDS011;69097;52.132;5.422;2023-07-24T05:36:04;9.75;;;5.20;;
79616;SDS011;69097;52.132;5.422;2023-07-24T05:38:34;9.90;;;5.30;;
79616;SDS011;69097;52.132;5.422;2023-07-24T05:41:01;10.20;;;5.13;;
79616;SDS011;69097;52.132;5.422;2023-07-24T05:43:31;9.65;;;5.40;;
79616;SDS011;69097;52.132;5.422;2023-07-24T05:46:01;9.35;;;5.55;;
79616;SDS011;69097;52.132;5.422;2023-07-24T05:48:29;10.00;;;4.22;;
79616;SDS011;69097;52.132;5.422;2023-07-24T05:50:56;12.73;;;5.60;;
79616;SDS011;69097;52.132;5.422;2023-07-24T05:53:38;9.32;;;5.50;;
79616;SDS011;69097;52.132;5.422;2023-07-24T05:56:05;9.55;;;5.40;;
79616;SDS011;69097;52.132;5.422;2023-07-24T05:58:34;10.60;;;5.45;;
79616;SDS011;69097;52.132;5.422;2023-07-24T06:01:09;11.05;;;5.28;;
79616;SDS011;69097;52.132;5.422;2023-07-24T06:03:40;10.25;;;5.25;;
79616;SDS011;69097;52.132;5.422;2023-07-24T06:06:10;9.57;;;4.88;;
79616;SDS011;69097;52.132;5.422;2023-07-24T06:08:38;11.80;;;5.32;;
79616;SDS011;69097;52.132;5.422;2023-07-24T06:11:04;11.75;;;5.53;;
79616;SDS011;69097;52.132;5.422;2023-07-24T06:13:34;11.57;;;4.88;;
79616;SDS011;69097;52.132;5.422;2023-07-24T06:16:02;13.30;;;5.45;;
79616;SDS011;69097;52.132;5.422;2023-07-24T06:18:34;12.57;;;5.13;;
79616;SDS011;69097;52.132;5.422;2023-07-24T06:21:05;10.90;;;4.93;;
79616;SDS011;69097;52.132;5.422;2023-07-24T06:23:38;10.60;;;5.15;;
79616;SDS011;69097;52.132;5.422;2023-07-24T06:26:06;11.93;;;5.63;;
79616;SDS011;69097;52.132;5.422;2023-07-24T06:28:37;11.02;;;5.88;;
79616;SDS011;69097;52.132;5.422;2023-07-24T06:31:08;10.18;;;5.50;;
79616;SDS011;69097;52.132;5.422;2023-07-24T06:33:36;10.55;;;4.10;;
79616;SDS011;69097;52.132;5.422;2023-07-24T06:36:02;14.43;;;5.18;;
79616;SDS011;69097;52.132;5.422;2023-07-24T06:38:29;10.80;;;4.93;;
79616;SDS011;69097;52.132;5.422;2023-07-24T06:40:56;9.55;;;5.07;;
79616;SDS011;69097;52.132;5.422;2023-07-24T06:43:22;13.75;;;5.53;;
79616;SDS011;69097;52.132;5.422;2023-07-24T06:45:49;8.98;;;3.88;;
79616;SDS011;69097;52.132;5.422;2023-07-24T06:48:15;9.55;;;4.78;;
79616;SDS011;69097;52.132;5.422;2023-07-24T06:50:42;10.23;;;4.85;;
79616;SDS011;69097;52.132;5.422;2023-07-24T06:53:08;11.38;;;4.30;;
79616;SDS011;69097;52.132;5.422;2023-07-24T06:55:35;10.43;;;3.55;;
79616;SDS011;69097;52.132;5.422;2023-07-24T06:58:01;11.15;;;4.35;;
79616;SDS011;69097;52.132;5.422;2023-07-24T07:00:28;10.30;;;4.55;;
79616;SDS011;69097;52.132;5.422;2023-07-24T07:02:54;10.25;;;4.28;;
79616;SDS011;69097;52.132;5.422;2023-07-24T07:05:21;11.25;;;3.92;;
79616;SDS011;69097;52.132;5.422;2023-07-24T07:07:47;11.02;;;3.65;;
79616;SDS011;69097;52.132;5.422;2023-07-24T07:10:14;9.63;;;4.80;;
79616;SDS011;69097;52.132;5.422;2023-07-24T07:12:40;11.65;;;4.32;;
79616;SDS011;69097;52.132;5.422;2023-07-24T07:15:08;11.32;;;4.75;;
79616;SDS011;69097;52.132;5.422;2023-07-24T07:17:35;11.70;;;5.20;;
79616;SDS011;69097;52.132;5.422;2023-07-24T07:20:01;9.82;;;4.45;;
79616;SDS011;69097;52.132;5.422;2023-07-24T07:22:29;11.50;;;5.18;;
79616;SDS011;69097;52.132;5.422;2023-07-24T07:24:55;11.18;;;4.75;;
79616;SDS011;69097;52.132;5.422;2023-07-24T07:27:22;10.32;;;4.60;;
79616;SDS011;69097;52.132;5.422;2023-07-24T07:29:48;13.35;;;4.25;;
79616;SDS011;69097;52.132;5.422;2023-07-24T07:32:15;7.97;;;3.38;;
79616;SDS011;69097;52.132;5.422;2023-07-24T07:34:42;9.00;;;4.47;;
79616;SDS011;69097;52.132;5.422;2023-07-24T07:37:09;12.63;;;5.28;;
79616;SDS011;69097;52.132;5.422;2023-07-24T07:39:35;10.07;;;5.10;;
79616;SDS011;69097;52.132;5.422;2023-07-24T07:42:02;8.43;;;3.90;;
79616;SDS011;69097;52.132;5.422;2023-07-24T07:44:43;12.05;;;4.70;;
79616;SDS011;69097;52.132;5.422;2023-07-24T07:49:37;8.93;;;4.53;;
79616;SDS011;69097;52.132;5.422;2023-07-24T07:52:04;12.20;;;4.95;;
79616;SDS011;69097;52.132;5.422;2023-07-24T07:54:36;11.40;;;5.20;;
79616;SDS011;69097;52.132;5.422;2023-07-24T07:57:03;10.73;;;4.70;;
79616;SDS011;69097;52.132;5.422;2023-07-24T07:59:30;11.95;;;3.92;;
79616;SDS011;69097;52.132;5.422;2023-07-24T08:01:57;9.88;;;5.53;;
79616;SDS011;69097;52.132;5.422;2023-07-24T08:04:23;9.02;;;4.68;;
79616;SDS011;69097;52.132;5.422;2023-07-24T08:06:50;8.02;;;4.30;;
79616;SDS011;69097;52.132;5.422;2023-07-24T08:09:16;9.10;;;5.63;;
79616;SDS011;69097;52.132;5.422;2023-07-24T08:11:43;9.93;;;5.30;;
79616;SDS011;69097;52.132;5.422;2023-07-24T08:14:10;9.57;;;5.47;;
79616;SDS011;69097;52.132;5.422;2023-07-24T08:16:36;8.07;;;4.82;;
79616;SDS011;69097;52.132;5.422;2023-07-24T08:19:03;11.05;;;4.68;;
79616;SDS011;69097;52.132;5.422;2023-07-24T08:21:30;9.85;;;5.38;;
79616;SDS011;69097;52.132;5.422;2023-07-24T08:23:56;10.00;;;4.57;;
79616;SDS011;69097;52.132;5.422;2023-07-24T08:26:24;9.00;;;4.78;;
79616;SDS011;69097;52.132;5.422;2023-07-24T08:28:52;10.88;;;4.65;;
79616;SDS011;69097;52.132;5.422;2023-07-24T08:31:19;10.07;;;5.47;;
79616;SDS011;69097;52.132;5.422;2023-07-24T08:33:46;11.25;;;5.18;;
79616;SDS011;69097;52.132;5.422;2023-07-24T08:36:12;9.30;;;4.80;;
79616;SDS011;69097;52.132;5.422;2023-07-24T08:38:39;9.40;;;4.97;;
79616;SDS011;69097;52.132;5.422;2023-07-24T08:41:09;13.52;;;5.53;;
79616;SDS011;69097;52.132;5.422;2023-07-24T08:43:38;10.80;;;4.63;;
79616;SDS011;69097;52.132;5.422;2023-07-24T08:46:06;9.15;;;4.68;;
79616;SDS011;69097;52.132;5.422;2023-07-24T08:48:34;10.05;;;4.45;;
79616;SDS011;69097;52.132;5.422;2023-07-24T08:51:12;11.10;;;3.70;;
79616;SDS011;69097;52.132;5.422;2023-07-24T08:53:40;10.02;;;4.93;;
79616;SDS011;69097;52.132;5.422;2023-07-24T08:56:09;7.80;;;3.95;;
79616;SDS011;69097;52.132;5.422;2023-07-24T08:58:38;9.82;;;3.53;;
79616;SDS011;69097;52.132;5.422;2023-07-24T09:01:07;10.38;;;5.03;;
79616;SDS011;69097;52.132;5.422;2023-07-24T09:03:35;9.77;;;4.28;;
79616;SDS011;69097;52.132;5.422;2023-07-24T09:06:02;9.15;;;4.53;;
79616;SDS011;69097;52.132;5.422;2023-07-24T09:08:44;9.23;;;5.00;;
79616;SDS011;69097;52.132;5.422;2023-07-24T09:11:12;9.25;;;4.68;;
79616;SDS011;69097;52.132;5.422;2023-07-24T09:13:43;8.13;;;4.55;;
79616;SDS011;69097;52.132;5.422;2023-07-24T09:16:20;10.02;;;5.10;;
79616;SDS011;69097;52.132;5.422;2023-07-24T09:18:51;10.95;;;5.28;;
79616;SDS011;69097;52.132;5.422;2023-07-24T09:21:28;8.55;;;4.78;;
79616;SDS011;69097;52.132;5.422;2023-07-24T09:23:56;10.00;;;4.63;;
79616;SDS011;69097;52.132;5.422;2023-07-24T09:26:23;11.20;;;5.57;;
79616;SDS011;69097;52.132;5.422;2023-07-24T09:28:53;8.57;;;4.53;;
79616;SDS011;69097;52.132;5.422;2023-07-24T09:31:20;7.95;;;3.58;;
79616;SDS011;69097;52.132;5.422;2023-07-24T09:33:47;8.10;;;4.90;;
79616;SDS011;69097;52.132;5.422;2023-07-24T09:36:13;9.40;;;3.92;;
79616;SDS011;69097;52.132;5.422;2023-07-24T09:38:41;11.73;;;5.63;;
79616;SDS011;69097;52.132;5.422;2023-07-24T09:41:08;8.55;;;4.60;;
79616;SDS011;69097;52.132;5.422;2023-07-24T09:43:35;8.57;;;4.97;;
79616;SDS011;69097;52.132;5.422;2023-07-24T09:46:06;7.43;;;3.42;;
79616;SDS011;69097;52.132;5.422;2023-07-24T09:48:35;10.10;;;5.07;;
79616;SDS011;69097;52.132;5.422;2023-07-24T09:51:05;11.52;;;4.82;;
79616;SDS011;69097;52.132;5.422;2023-07-24T09:53:39;8.80;;;4.80;;
79616;SDS011;69097;52.132;5.422;2023-07-24T09:56:10;8.27;;;5.00;;
79616;SDS011;69097;52.132;5.422;2023-07-24T09:58:37;7.97;;;4.53;;
79616;SDS011;69097;52.132;5.422;2023-07-24T10:01:05;8.82;;;5.22;;
79616;SDS011;69097;52.132;5.422;2023-07-24T10:03:34;10.57;;;4.85;;
79616;SDS011;69097;52.132;5.422;2023-07-24T10:06:02;9.82;;;4.80;;
79616;SDS011;69097;52.132;5.422;2023-07-24T10:08:29;12.57;;;4.50;;
79616;SDS011;69097;52.132;5.422;2023-07-24T10:10:59;9.40;;;4.47;;
79616;SDS011;69097;52.132;5.422;2023-07-24T10:13:26;9.50;;;4.07;;
79616;SDS011;69097;52.132;5.422;2023-07-24T10:15:55;8.30;;;3.25;;
79616;SDS011;69097;52.132;5.422;2023-07-24T10:18:26;8.90;;;4.47;;
79616;SDS011;69097;52.132;5.422;2023-07-24T10:21:07;10.88;;;4.53;;
79616;SDS011;69097;52.132;5.422;2023-07-24T10:23:44;9.07;;;4.20;;
79616;SDS011;69097;52.132;5.422;2023-07-24T10:26:14;8.65;;;4.50;;
79616;SDS011;69097;52.132;5.422;2023-07-24T10:28:47;10.27;;;4.50;;
79616;SDS011;69097;52.132;5.422;2023-07-24T10:31:25;9.18;;;3.10;;
79616;SDS011;69097;52.132;5.422;2023-07-24T10:33:54;6.47;;;3.47;;
79616;SDS011;69097;52.132;5.422;2023-07-24T10:36:23;9.13;;;3.08;;
79616;SDS011;69097;52.132;5.422;2023-07-24T10:38:54;8.02;;;3.78;;
79616;SDS011;69097;52.132;5.422;2023-07-24T10:41:21;10.75;;;4.55;;
79616;SDS011;69097;52.132;5.422;2023-07-24T10:43:48;7.82;;;3.63;;
79616;SDS011;69097;52.132;5.422;2023-07-24T10:46:17;7.93;;;4.22;;
79616;SDS011;69097;52.132;5.422;2023-07-24T10:48:46;9.27;;;3.80;;
79616;SDS011;69097;52.132;5.422;2023-07-24T10:51:14;8.63;;;3.85;;
79616;SDS011;69097;52.132;5.422;2023-07-24T10:53:43;12.70;;;4.38;;
79616;SDS011;69097;52.132;5.422;2023-07-24T10:56:12;8.65;;;3.92;;
79616;SDS011;69097;52.132;5.422;2023-07-24T10:58:39;8.02;;;3.90;;
79616;SDS011;69097;52.132;5.422;2023-07-24T11:01:06;8.05;;;4.30;;
79616;SDS011;69097;52.132;5.422;2023-07-24T11:03:35;8.13;;;4.07;;
79616;SDS011;69097;52.132;5.422;2023-07-24T11:06:03;8.05;;;4.63;;
79616;SDS011;69097;52.132;5.422;2023-07-24T11:08:30;11.18;;;3.38;;
79616;SDS011;69097;52.132;5.422;2023-07-24T11:10:57;10.55;;;5.07;;
79616;SDS011;69097;52.132;5.422;2023-07-24T11:13:25;8.52;;;4.13;;
79616;SDS011;69097;52.132;5.422;2023-07-24T11:15:53;9.30;;;4.65;;
79616;SDS011;69097;52.132;5.422;2023-07-24T11:18:20;8.88;;;4.10;;
79616;SDS011;69097;52.132;5.422;2023-07-24T11:20:49;9.85;;;3.80;;
79616;SDS011;69097;52.132;5.422;2023-07-24T11:23:17;9.13;;;4.15;;
79616;SDS011;69097;52.132;5.422;2023-07-24T11:25:45;9.55;;;3.67;;
79616;SDS011;69097;52.132;5.422;2023-07-24T11:28:13;7.70;;;4.47;;
79616;SDS011;69097;52.132;5.422;2023-07-24T11:30:41;9.90;;;4.30;;
79616;SDS011;69097;52.132;5.422;2023-07-24T11:33:09;8.20;;;4.70;;
79616;SDS011;69097;52.132;5.422;2023-07-24T11:35:38;11.85;;;4.25;;
79616;SDS011;69097;52.132;5.422;2023-07-24T11:38:09;8.63;;;4.85;;
79616;SDS011;69097;52.132;5.422;2023-07-24T11:40:40;10.13;;;4.05;;
79616;SDS011;69097;52.132;5.422;2023-07-24T11:43:17;13.85;;;4.95;;
79616;SDS011;69097;52.132;5.422;2023-07-24T11:45:46;9.57;;;4.93;;
79616;SDS011;69097;52.132;5.422;2023-07-24T11:48:15;9.90;;;4.80;;
79616;SDS011;69097;52.132;5.422;2023-07-24T11:50:42;11.55;;;5.78;;
79616;SDS011;69097;52.132;5.422;2023-07-24T11:53:18;12.10;;;5.72;;
79616;SDS011;69097;52.132;5.422;2023-07-24T11:55:58;11.57;;;6.00;;
79616;SDS011;69097;52.132;5.422;2023-07-24T11:58:25;12.18;;;6.03;;
79616;SDS011;69097;52.132;5.422;2023-07-24T12:00:53;10.55;;;6.50;;
79616;SDS011;69097;52.132;5.422;2023-07-24T12:03:21;12.07;;;6.97;;
79616;SDS011;69097;52.132;5.422;2023-07-24T12:05:49;14.00;;;7.55;;
79616;SDS011;69097;52.132;5.422;2023-07-24T12:08:17;11.95;;;6.90;;
79616;SDS011;69097;52.132;5.422;2023-07-24T12:10:46;11.05;;;6.20;;
79616;SDS011;69097;52.132;5.422;2023-07-24T12:13:12;9.68;;;5.72;;
79616;SDS011;69097;52.132;5.422;2023-07-24T12:15:39;10.27;;;5.43;;
79616;SDS011;69097;52.132;5.422;2023-07-24T12:18:06;8.23;;;3.30;;
79616;SDS011;69097;52.132;5.422;2023-07-24T12:20:33;11.20;;;5.65;;
79616;SDS011;69097;52.132;5.422;2023-07-24T12:23:00;8.60;;;4.70;;
79616;SDS011;69097;52.132;5.422;2023-07-24T12:25:27;14.20;;;5.05;;
79616;SDS011;69097;52.132;5.422;2023-07-24T12:27:55;8.88;;;4.57;;
79616;SDS011;69097;52.132;5.422;2023-07-24T12:30:21;10.57;;;5.82;;
79616;SDS011;69097;52.132;5.422;2023-07-24T12:32:48;9.10;;;4.82;;
79616;SDS011;69097;52.132;5.422;2023-07-24T12:35:15;7.72;;;4.88;;
79616;SDS011;69097;52.132;5.422;2023-07-24T12:37:43;10.27;;;5.07;;
79616;SDS011;69097;52.132;5.422;2023-07-24T12:40:10;8.18;;;4.57;;
79616;SDS011;69097;52.132;5.422;2023-07-24T12:42:36;10.52;;;5.47;;
79616;SDS011;69097;52.132;5.422;2023-07-24T12:45:03;10.02;;;5.15;;
79616;SDS011;69097;52.132;5.422;2023-07-24T12:47:31;8.60;;;5.47;;
79616;SDS011;69097;52.132;5.422;2023-07-24T12:49:58;9.50;;;3.97;;
79616;SDS011;69097;52.132;5.422;2023-07-24T12:52:26;8.43;;;5.53;;
79616;SDS011;69097;52.132;5.422;2023-07-24T12:57:27;12.27;;;4.88;;
79616;SDS011;69097;52.132;5.422;2023-07-24T12:59:54;10.20;;;4.95;;
79616;SDS011;69097;52.132;5.422;2023-07-24T13:02:21;8.30;;;4.63;;
79616;SDS011;69097;52.132;5.422;2023-07-24T13:04:47;8.40;;;4.28;;
79616;SDS011;69097;52.132;5.422;2023-07-24T13:07:16;10.25;;;5.13;;
79616;SDS011;69097;52.132;5.422;2023-07-24T13:09:47;10.10;;;4.78;;
79616;SDS011;69097;52.132;5.422;2023-07-24T13:12:13;10.57;;;6.13;;
79616;SDS011;69097;52.132;5.422;2023-07-24T13:14:40;10.50;;;5.35;;
79616;SDS011;69097;52.132;5.422;2023-07-24T13:17:08;9.23;;;5.15;;
79616;SDS011;69097;52.132;5.422;2023-07-24T13:19:36;8.90;;;5.53;;
79616;SDS011;69097;52.132;5.422;2023-07-24T13:22:02;11.93;;;6.10;;
79616;SDS011;69097;52.132;5.422;2023-07-24T13:24:29;10.40;;;6.18;;
79616;SDS011;69097;52.132;5.422;2023-07-24T13:26:56;10.00;;;6.20;;
79616;SDS011;69097;52.132;5.422;2023-07-24T13:29:22;16.88;;;6.93;;
79616;SDS011;69097;52.132;5.422;2023-07-24T13:31:51;11.85;;;6.78;;
79616;SDS011;69097;52.132;5.422;2023-07-24T13:36:46;11.38;;;6.15;;
79616;SDS011;69097;52.132;5.422;2023-07-24T13:39:15;10.48;;;5.75;;
79616;SDS011;69097;52.132;5.422;2023-07-24T13:41:43;10.57;;;6.15;;
79616;SDS011;69097;52.132;5.422;2023-07-24T13:44:09;11.07;;;6.68;;
79616;SDS011;69097;52.132;5.422;2023-07-24T13:46:36;14.10;;;6.47;;
79616;SDS011;69097;52.132;5.422;2023-07-24T13:49:06;9.52;;;5.63;;
79616;SDS011;69097;52.132;5.422;2023-07-24T13:54:01;10.63;;;5.78;;
79616;SDS011;69097;52.132;5.422;2023-07-24T13:56:29;12.98;;;6.10;;
79616;SDS011;69097;52.132;5.422;2023-07-24T13:59:00;9.63;;;4.38;;
79616;SDS011;69097;52.132;5.422;2023-07-24T14:01:26;10.85;;;5.45;;
79616;SDS011;69097;52.132;5.422;2023-07-24T14:03:54;8.80;;;5.47;;
79616;SDS011;69097;52.132;5.422;2023-07-24T14:06:23;10.82;;;5.00;;
79616;SDS011;69097;52.132;5.422;2023-07-24T14:08:49;7.70;;;4.80;;
79616;SDS011;69097;52.132;5.422;2023-07-24T14:11:18;10.00;;;5.13;;
79616;SDS011;69097;52.132;5.422;2023-07-24T14:13:46;12.30;;;5.45;;
79616;SDS011;69097;52.132;5.422;2023-07-24T14:16:13;10.23;;;5.07;;
79616;SDS011;69097;52.132;5.422;2023-07-24T14:18:42;9.93;;;5.03;;
79616;SDS011;69097;52.132;5.422;2023-07-24T14:21:11;11.30;;;5.85;;
79616;SDS011;69097;52.132;5.422;2023-07-24T14:23:38;11.07;;;5.93;;
79616;SDS011;69097;52.132;5.422;2023-07-24T14:26:06;11.93;;;5.68;;
79616;SDS011;69097;52.132;5.422;2023-07-24T14:28:42;12.85;;;6.07;;
79616;SDS011;69097;52.132;5.422;2023-07-24T14:31:08;11.57;;;6.25;;
79616;SDS011;69097;52.132;5.422;2023-07-24T14:33:35;8.30;;;5.47;;
79616;SDS011;69097;52.132;5.422;2023-07-24T14:36:03;11.55;;;4.55;;
79616;SDS011;69097;52.132;5.422;2023-07-24T14:38:33;10.18;;;4.15;;
79616;SDS011;69097;52.132;5.422;2023-07-24T14:41:20;7.80;;;4.53;;
79616;SDS011;69097;52.132;5.422;2023-07-24T14:44:15;7.05;;;4.50;;
79616;SDS011;69097;52.132;5.422;2023-07-24T14:46:48;9.32;;;3.15;;
79616;SDS011;69097;52.132;5.422;2023-07-24T14:49:17;6.72;;;3.15;;
79616;SDS011;69097;52.132;5.422;2023-07-24T14:51:59;6.45;;;3.08;;
79616;SDS011;69097;52.132;5.422;2023-07-24T14:54:28;7.32;;;3.72;;
79616;SDS011;69097;52.132;5.422;2023-07-24T14:59:44;7.97;;;3.15;;
79616;SDS011;69097;52.132;5.422;2023-07-24T15:02:13;5.25;;;1.95;;
79616;SDS011;69097;52.132;5.422;2023-07-24T15:04:45;5.65;;;2.67;;
79616;SDS011;69097;52.132;5.422;2023-07-24T15:07:14;7.18;;;2.28;;
79616;SDS011;69097;52.132;5.422;2023-07-24T15:09:42;6.57;;;2.50;;
79616;SDS011;69097;52.132;5.422;2023-07-24T15:12:24;7.43;;;2.08;;
79616;SDS011;69097;52.132;5.422;2023-07-24T15:15:02;6.50;;;2.20;;